Time;durP1;ratioP1;P1;durP2;ratioP2;P2;SDS_P1;SDS_P2;PMS_P1;PMS_P2;Temp;Humidity;BMP_temperature;BMP_pressure;BME280_temperature;BME280_humidity;BME280_pressure;Samples;Min_cycle;Max_cycle;Signal;HPM_P1;HPM_P2
2022/05/06 00:04:19;;;;;;;33.85;16.75;;;;;;;7.68;100.00;102436.97;10562921;28;20032;-68
2022/05/06 00:09:20;;;;;;;31.40;15.70;;;;;;;7.69;100.00;102440.59;10563953;28;20048;-67
2022/05/06 00:14:20;;;;;;;33.83;16.92;;;;;;;7.63;100.00;102452.31;10508527;28;20039;-69
2022/05/06 00:19:21;;;;;;;28.90;16.60;;;;;;;7.54;100.00;102453.47;10517491;28;20044;-69
2022/05/06 00:24:22;;;;;;;29.77;16.13;;;;;;;7.46;100.00;102458.06;10540693;28;20029;-68
2022/05/06 00:29:22;;;;;;;32.78;17.23;;;;;;;7.38;100.00;102455.44;10540821;28;20060;-69
2022/05/06 00:34:23;;;;;;;28.67;17.23;;;;;;;7.32;100.00;102450.75;10541109;28;20043;-68
2022/05/06 00:39:23;;;;;;;32.72;16.65;;;;;;;7.28;100.00;102460.41;10560142;28;20035;-68
2022/05/06 00:44:25;;;;;;;32.88;18.20;;;;;;;7.24;100.00;102459.94;10539642;28;20024;-68
2022/05/06 00:49:25;;;;;;;32.50;18.67;;;;;;;7.09;100.00;102450.91;10539998;28;20085;-68
2022/05/06 00:54:26;;;;;;;38.17;18.75;;;;;;;7.06;100.00;102457.59;10523364;28;20031;-68
2022/05/06 00:59:26;;;;;;;34.42;17.45;;;;;;;6.93;100.00;102434.69;10539455;28;20066;-68
2022/05/06 01:04:27;;;;;;;39.55;20.40;;;;;;;6.94;100.00;102448.19;10557080;28;20030;-69
2022/05/06 01:09:27;;;;;;;35.72;18.08;;;;;;;6.94;100.00;102453.66;10523992;28;20036;-69
2022/05/06 01:14:35;;;;;;;37.75;18.77;;;;;;;6.89;100.00;102456.13;10522597;28;20024;-69
2022/05/06 01:19:35;;;;;;;39.60;20.25;;;;;;;6.86;100.00;102454.63;10538541;28;20074;-68
2022/05/06 01:24:36;;;;;;;49.63;21.17;;;;;;;6.74;100.00;102442.47;10538586;28;20040;-69
2022/05/06 01:29:36;;;;;;;40.92;20.77;;;;;;;6.73;100.00;102442.66;10537057;28;20066;-69
2022/05/06 01:34:39;;;;;;;39.25;19.40;;;;;;;6.73;100.00;102453.59;10521809;28;20036;-68
2022/05/06 01:39:40;;;;;;;35.80;18.35;;;;;;;6.71;100.00;102463.88;10522616;28;20028;-68
2022/05/06 01:44:42;;;;;;;40.42;19.90;;;;;;;6.63;100.00;102451.97;10521279;28;20024;-68
2022/05/06 01:49:43;;;;;;;43.08;20.63;;;;;;;6.58;100.00;102451.72;10537700;28;20125;-69
2022/05/06 01:54:44;;;;;;;41.10;19.88;;;;;;;6.51;100.00;102448.06;10536752;28;20020;-69
2022/05/06 01:59:44;;;;;;;37.78;20.17;;;;;;;6.54;100.00;102450.41;10520245;28;20091;-68
2022/05/06 02:10:04;;;;;;;41.85;19.73;;;;;;;6.49;100.00;102455.59;10553345;28;20462;-69
2022/05/06 02:15:05;;;;;;;38.33;20.17;;;;;;;6.29;100.00;102438.03;10554644;28;20032;-69
2022/05/06 02:20:07;;;;;;;39.67;21.77;;;;;;;6.31;100.00;102447.75;10537034;28;20091;-70
2022/05/06 02:25:09;;;;;;;40.17;23.05;;;;;;;6.38;100.00;102456.06;10485924;28;20048;-69
2022/05/06 02:35:29;;;;;;;42.25;22.58;;;;;;;6.38;100.00;102448.69;10554589;28;20484;-68
2022/05/06 02:40:29;;;;;;;40.08;21.50;;;;;;;6.34;100.00;102452.00;10538868;28;20386;-69
2022/05/06 02:45:31;;;;;;;47.83;23.42;;;;;;;6.24;100.00;102435.84;10528557;28;20024;-69
2022/05/06 02:50:31;;;;;;;52.83;25.80;;;;;;;6.35;100.00;102459.19;10544721;28;20051;-69
2022/05/06 02:55:32;;;;;;;60.13;27.27;;;;;;;6.28;100.00;102447.28;10543762;28;20032;-69
2022/05/06 03:00:32;;;;;;;50.92;24.90;;;;;;;6.24;100.00;102444.91;10545356;28;20110;-68
2022/05/06 03:05:33;;;;;;;50.05;24.70;;;;;;;6.22;100.00;102454.31;10544980;28;20029;-69
2022/05/06 03:10:33;;;;;;;44.60;23.80;;;;;;;6.01;100.00;102430.44;10562386;28;20024;-69
2022/05/06 03:15:35;;;;;;;45.35;22.33;;;;;;;6.06;100.00;102444.41;10561976;28;20054;-68
2022/05/06 03:20:37;;;;;;;45.63;23.90;;;;;;;6.04;100.00;102451.97;10560754;28;20459;-69
2022/05/06 03:25:37;;;;;;;50.97;24.80;;;;;;;6.01;100.00;102446.84;10508134;28;20028;-69
2022/05/06 03:30:44;;;;;;;48.30;26.10;;;;;;;5.94;100.00;102440.41;10562236;28;20303;-68
2022/05/06 03:35:44;;;;;;;50.60;25.60;;;;;;;5.97;100.00;102440.91;10544187;28;20036;-69
2022/05/06 03:40:45;;;;;;;54.08;27.15;;;;;;;6.02;100.00;102437.63;10525906;28;20036;-69
2022/05/06 03:45:46;;;;;;;55.55;26.73;;;;;;;6.05;100.00;102437.25;10525802;28;20032;-69
2022/05/06 03:56:06;;;;;;;53.67;25.58;;;;;;;6.05;100.00;102437.25;10560238;28;20452;-69
2022/05/06 04:01:09;;;;;;;52.92;24.27;;;;;;;6.06;100.00;102433.47;10542589;28;20042;-69
2022/05/06 04:06:13;;;;;;;49.65;24.85;;;;;;;6.10;100.00;102444.88;10560137;28;20054;-68
2022/05/06 04:11:14;;;;;;;45.50;23.15;;;;;;;6.04;100.00;102441.88;10541993;28;20036;-69
2022/05/06 04:16:15;;;;;;;46.10;25.33;;;;;;;6.18;100.00;102450.25;10541420;28;20086;-69
2022/05/06 04:26:35;;;;;;;47.28;24.35;;;;;;;6.43;100.00;102446.25;10551902;28;20033;-68
2022/05/06 04:31:35;;;;;;;46.33;24.50;;;;;;;6.62;100.00;102454.94;10516598;28;20033;-69
2022/05/06 04:36:39;;;;;;;46.97;24.58;;;;;;;6.76;100.00;102453.19;10516642;28;20035;-69
2022/05/06 04:41:41;;;;;;;48.75;27.25;;;;;;;6.98;100.00;102448.66;10516592;28;20037;-69
2022/05/06 04:46:41;;;;;;;48.38;24.65;;;;;;;7.34;100.00;102459.63;10498414;28;20033;-69
2022/05/06 04:51:42;;;;;;;44.53;23.73;;;;;;;7.58;100.00;102463.00;10516949;28;20040;-68
2022/05/06 04:56:42;;;;;;;42.53;22.83;;;;;;;7.82;100.00;102459.88;10539580;28;20040;-69
2022/05/06 05:01:43;;;;;;;44.70;23.60;;;;;;;7.97;100.00;102470.75;10538165;28;20039;-69
2022/05/06 05:06:43;;;;;;;52.00;26.58;;;;;;;8.09;100.00;102447.22;10556194;28;20032;-69
2022/05/06 05:11:45;;;;;;;64.85;33.30;;;;;;;8.24;100.00;102449.88;10538835;28;20054;-69
2022/05/06 05:16:45;;;;;;;62.72;31.88;;;;;;;8.51;100.00;102441.00;10522756;28;20028;-69
2022/05/06 05:21:47;;;;;;;50.42;27.98;;;;;;;8.87;100.00;102460.00;10557438;28;20052;-69
2022/05/06 05:26:47;;;;;;;59.95;30.10;;;;;;;8.82;100.00;102411.16;10538603;28;20040;-69
2022/05/06 05:31:48;;;;;;;59.22;30.55;;;;;;;9.30;100.00;102465.22;10555308;28;20016;-69
2022/05/06 05:36:48;;;;;;;50.88;27.70;;;;;;;9.35;100.00;102451.72;10555992;28;20031;-69
2022/05/06 05:41:49;;;;;;;44.47;25.92;;;;;;;9.61;100.00;102461.06;10538287;28;20046;-69
2022/05/06 05:52:08;;;;;;;43.92;24.70;;;;;;;9.97;100.00;102459.84;10542207;28;20091;-69
2022/05/06 05:57:09;;;;;;;46.75;25.05;;;;;;;10.17;100.00;102474.44;10536978;28;20435;-70
2022/05/06 06:02:10;;;;;;;40.08;24.15;;;;;;;10.15;100.00;102456.44;10555374;28;20050;-70
2022/05/06 06:07:11;;;;;;;41.53;23.20;;;;;;;10.22;100.00;102463.63;10537682;28;20028;-69
2022/05/06 06:12:12;;;;;;;41.58;23.25;;;;;;;10.19;100.00;102454.94;10537311;28;20061;-69
2022/05/06 06:17:12;;;;;;;39.80;23.08;;;;;;;10.39;100.00;102464.06;10555336;28;20032;-69
2022/05/06 06:22:12;;;;;;;39.72;24.95;;;;;;;10.59;100.00;102453.00;10555651;28;20040;-70
2022/05/06 06:27:13;;;;;;;36.92;21.98;;;;;;;10.85;100.00;102451.22;10517407;28;20116;-69
2022/05/06 06:32:13;;;;;;;38.50;22.58;;;;;;;10.79;100.00;102411.63;10554819;28;20031;-69
2022/05/06 06:37:14;;;;;;;44.25;24.42;;;;;;;11.22;100.00;102459.75;10536763;28;20050;-69
2022/05/06 06:42:14;;;;;;;40.58;22.20;;;;;;;11.18;100.00;102445.56;10536767;28;20040;-70
2022/05/06 06:47:15;;;;;;;39.75;22.35;;;;;;;11.45;100.00;102473.00;10555194;28;20028;-69
2022/05/06 06:52:15;;;;;;;41.20;22.65;;;;;;;11.84;100.00;102469.13;10556166;28;20041;-70
2022/05/06 06:57:16;;;;;;;36.75;21.13;;;;;;;12.44;100.00;102465.88;10553937;28;20020;-69
2022/05/06 07:02:16;;;;;;;34.30;19.70;;;;;;;12.94;100.00;102481.50;10554004;28;20054;-69
2022/05/06 07:12:36;;;;;;;28.42;18.98;;;;;;;13.75;100.00;102476.59;10536904;28;20100;-69
2022/05/06 07:17:36;;;;;;;36.67;20.88;;;;;;;14.13;100.00;102480.88;10519547;28;20024;-69
2022/05/06 07:22:37;;;;;;;34.67;20.38;;;;;;;14.31;100.00;102488.22;10553259;28;20051;-69
2022/05/06 07:27:37;;;;;;;36.47;22.55;;;;;;;14.26;100.00;102483.41;10555721;28;20046;-69
2022/05/06 07:32:38;;;;;;;33.65;20.33;;;;;;;14.06;100.00;102477.38;10559814;28;20472;-69
2022/05/06 07:37:38;;;;;;;31.98;19.05;;;;;;;13.83;100.00;102440.25;10499345;28;20034;-69
2022/05/06 07:42:40;;;;;;;30.55;19.33;;;;;;;14.20;100.00;102489.91;10560563;28;20046;-69
2022/05/06 07:47:40;;;;;;;28.73;19.05;;;;;;;14.33;100.00;102488.84;10562170;28;20087;-69
2022/05/06 07:52:41;;;;;;;27.63;18.70;;;;;;;14.66;100.00;102488.25;10543085;28;20035;-69
2022/05/06 07:57:43;;;;;;;32.35;19.55;;;;;;;14.86;100.00;102492.56;10540948;28;20038;-69
2022/05/06 08:08:03;;;;;;;35.33;21.25;;;;;;;15.38;100.00;102483.38;10559003;28;20167;-70
2022/05/06 08:13:04;;;;;;;38.17;22.48;;;;;;;15.48;100.00;102472.47;10559443;28;20110;-69
2022/05/06 08:18:05;;;;;;;37.17;21.02;;;;;;;15.44;100.00;102487.91;10524024;28;20048;-69
2022/05/06 08:23:07;;;;;;;30.73;19.70;;;;;;;15.26;100.00;102491.75;10556484;28;20036;-69
2022/05/06 08:28:07;;;;;;;28.15;18.20;;;;;;;15.34;100.00;102449.75;10543124;28;20024;-69
2022/05/06 08:33:08;;;;;;;25.40;17.45;;;;;;;15.43;100.00;102470.44;10563858;28;20015;-70
2022/05/06 08:38:08;;;;;;;20.88;14.35;;;;;;;15.78;100.00;102482.50;10589924;28;20080;-69
2022/05/06 08:43:09;;;;;;;22.42;15.98;;;;;;;15.90;100.00;102475.78;10567859;28;20040;-69
2022/05/06 08:53:31;;;;;;;21.90;14.98;;;;;;;15.99;100.00;102478.97;10498864;28;20045;-68
2022/05/06 08:58:36;;;;;;;21.27;14.30;;;;;;;15.71;100.00;102477.06;10536815;28;20035;-72
2022/05/06 09:03:40;;;;;;;18.33;12.45;;;;;;;16.43;100.00;102470.78;10502674;28;20028;-68
2022/05/06 09:08:44;;;;;;;17.58;12.13;;;;;;;17.07;100.00;102453.59;10488409;28;20040;-69
2022/05/06 09:13:52;;;;;;;12.98;9.45;;;;;;;17.60;100.00;102469.78;10489491;28;20100;-69
2022/05/06 09:19:09;;;;;;;12.70;9.77;;;;;;;17.71;100.00;102465.97;10456157;28;20052;-69
2022/05/06 09:24:19;;;;;;;16.10;10.13;;;;;;;17.94;100.00;102460.13;10426270;28;20046;-67
2022/05/06 09:29:33;;;;;;;21.52;12.77;;;;;;;17.76;100.00;102463.25;10378074;28;20526;-68
2022/05/06 09:34:34;;;;;;;16.05;10.18;;;;;;;17.69;100.00;102463.47;10377678;28;20052;-67
2022/05/06 09:39:38;;;;;;;16.42;10.85;;;;;;;17.82;100.00;102465.00;10376662;28;20042;-68
2022/05/06 09:44:38;;;;;;;11.40;8.63;;;;;;;17.89;96.45;102453.66;10390157;28;20064;-69
2022/05/06 09:49:42;;;;;;;13.23;9.68;;;;;;;17.83;95.45;102447.19;10374858;28;20464;-67
2022/05/06 09:54:43;;;;;;;13.35;9.23;;;;;;;17.68;97.42;102419.19;10374068;28;20088;-69
2022/05/06 09:59:44;;;;;;;16.88;9.88;;;;;;;18.33;94.32;102448.72;10425567;28;20037;-69
2022/05/06 10:04:45;;;;;;;16.58;11.27;;;;;;;18.60;93.52;102442.16;10398663;28;20493;-68
2022/05/06 10:09:45;;;;;;;10.57;6.28;;;;;;;18.18;89.69;102440.22;10414615;28;20041;-67
2022/05/06 10:14:45;;;;;;;13.38;7.80;;;;;;;18.35;89.85;102437.25;10415613;28;20029;-69
2022/05/06 10:19:46;;;;;;;15.45;7.50;;;;;;;18.58;88.24;102430.41;10413401;28;20428;-68
2022/05/06 10:24:49;;;;;;;7.68;5.45;;;;;;;18.43;84.90;102421.97;10414878;28;20044;-69
2022/05/06 10:35:12;;;;;;;9.95;6.90;;;;;;;18.79;86.05;102416.59;10455883;28;20464;-68
2022/05/06 10:40:31;;;;;;;9.13;7.03;;;;;;;19.02;83.62;102410.56;10455515;28;20048;-69
2022/05/06 10:45:32;;;;;;;11.43;6.53;;;;;;;19.59;81.48;102394.75;10455988;28;20040;-68
2022/05/06 10:50:39;;;;;;;12.50;7.43;;;;;;;19.70;81.43;102395.59;10455346;28;20044;-68
2022/05/06 10:55:39;;;;;;;6.53;4.22;;;;;;;19.86;77.73;102377.72;10439869;28;20038;-69
2022/05/06 11:00:42;;;;;;;5.38;3.20;;;;;;;19.68;75.37;102367.94;10375321;28;20034;-67
2022/05/06 11:05:43;;;;;;;2.60;1.88;;;;;;;19.88;74.80;102369.06;10450995;28;20063;-69
2022/05/06 11:10:44;;;;;;;4.53;2.58;;;;;;;20.19;74.14;102372.66;10462469;28;20086;-69
2022/05/06 11:15:45;;;;;;;1.83;1.25;;;;;;;20.36;70.02;102353.59;10461651;28;20029;-71
2022/05/06 11:20:45;;;;;;;2.55;2.00;;;;;;;20.61;72.09;102365.84;10440939;28;20037;-69
2022/05/06 11:25:47;;;;;;;4.13;2.30;;;;;;;20.91;69.61;102358.41;10419300;28;20037;-68
2022/05/06 11:30:49;;;;;;;3.33;1.77;;;;;;;20.42;70.62;102356.38;10398094;28;20033;-67
2022/05/06 11:35:51;;;;;;;1.50;1.20;;;;;;;20.80;68.35;102342.81;10418760;28;20034;-70
2022/05/06 11:40:51;;;;;;;1.40;1.30;;;;;;;20.94;66.92;102329.84;10419896;28;20029;-67
2022/05/06 11:51:16;;;;;;;2.60;1.27;;;;;;;22.06;62.88;102316.03;10418050;28;20088;-68
2022/05/06 11:56:23;;;;;;;3.17;1.30;;;;;;;22.91;63.93;102314.41;10421822;28;20038;-67
2022/05/06 12:01:28;;;;;;;3.40;1.70;;;;;;;22.89;63.14;102319.50;10401929;28;20038;-68
2022/05/06 12:06:30;;;;;;;3.05;2.42;;;;;;;23.61;60.99;102316.41;10419237;28;20029;-68
2022/05/06 12:11:31;;;;;;;6.15;2.30;;;;;;;23.61;56.22;102305.16;10418147;28;20065;-70
2022/05/06 12:16:31;;;;;;;3.25;1.98;;;;;;;23.72;57.16;102302.97;10382135;28;20076;-68
2022/05/06 12:21:32;;;;;;;3.22;1.77;;;;;;;24.61;53.54;102290.53;10418789;28;20125;-69
2022/05/06 12:26:37;;;;;;;1.52;1.25;;;;;;;24.73;51.20;102278.72;10418605;28;20104;-69
2022/05/06 12:31:37;;;;;;;2.42;1.70;;;;;;;25.71;49.57;102275.16;10457121;28;20535;-68
2022/05/06 12:36:38;;;;;;;2.35;1.73;;;;;;;26.20;48.85;102272.41;10456656;28;20037;-68
2022/05/06 12:41:39;;;;;;;3.30;2.75;;;;;;;26.03;47.76;102269.53;10458943;28;20053;-69
2022/05/06 12:46:41;;;;;;;4.82;1.83;;;;;;;25.89;48.94;102267.63;10440598;28;20037;-67
2022/05/06 12:51:41;;;;;;;2.25;1.85;;;;;;;25.32;48.04;102264.63;10417693;28;20045;-67
2022/05/06 12:56:42;;;;;;;5.78;1.42;;;;;;;25.47;47.33;102269.88;10414922;28;20417;-69
2022/05/06 13:01:42;;;;;;;3.63;1.50;;;;;;;26.31;46.18;102259.63;10417192;28;20040;-69
2022/05/06 13:06:43;;;;;;;3.03;2.22;;;;;;;25.35;47.28;102267.66;10417212;28;20497;-69
2022/05/06 13:11:43;;;;;;;2.85;2.00;;;;;;;25.26;47.62;102263.09;10417001;28;20436;-68
2022/05/06 13:16:44;;;;;;;5.95;1.70;;;;;;;26.32;46.24;102257.66;10449944;28;20477;-66
2022/05/06 13:21:44;;;;;;;4.30;1.90;;;;;;;26.40;46.81;102253.16;10457769;28;20032;-67
2022/05/06 13:26:45;;;;;;;3.90;1.67;;;;;;;26.16;45.94;102245.97;10456073;28;20071;-68
2022/05/06 13:31:45;;;;;;;2.15;1.38;;;;;;;25.77;47.56;102264.56;10457589;28;20044;-66
2022/05/06 13:36:46;;;;;;;2.13;1.27;;;;;;;25.47;48.60;102258.59;10458028;28;20037;-67
2022/05/06 13:41:46;;;;;;;3.17;1.67;;;;;;;26.09;45.90;102246.47;10457420;28;20040;-66
2022/05/06 13:46:48;;;;;;;1.38;0.90;;;;;;;24.50;49.65;102263.78;10434711;28;20049;-66
2022/05/06 13:51:48;;;;;;;1.60;1.05;;;;;;;24.11;52.81;102274.41;10432152;28;20049;-66
2022/05/06 14:02:08;;;;;;;2.97;1.40;;;;;;;23.39;52.12;102266.47;10392616;28;20038;-67
2022/05/06 14:07:09;;;;;;;3.30;1.00;;;;;;;23.76;54.82;102284.34;10375059;28;20030;-66
2022/05/06 14:12:09;;;;;;;3.50;1.00;;;;;;;23.06;54.98;102277.69;10375122;28;20046;-66
2022/05/06 14:17:10;;;;;;;2.10;1.00;;;;;;;22.90;56.03;102284.63;10415276;28;20042;-66
2022/05/06 14:22:10;;;;;;;3.58;1.10;;;;;;;23.00;55.78;102273.25;10415732;28;20064;-66
2022/05/06 14:27:11;;;;;;;3.63;1.00;;;;;;;22.84;55.87;102274.63;10415127;28;20038;-66
2022/05/06 14:32:12;;;;;;;3.28;1.85;;;;;;;22.71;58.13;102277.06;10415090;28;20037;-67
2022/05/06 14:37:12;;;;;;;2.85;1.63;;;;;;;22.42;58.93;102279.16;10418764;28;20033;-66
2022/05/06 14:42:12;;;;;;;1.70;1.30;;;;;;;21.64;61.78;102287.59;10423185;28;20038;-66
2022/05/06 14:47:13;;;;;;;2.03;1.02;;;;;;;21.33;63.74;102301.00;10479240;28;20060;-62
2022/05/06 14:52:13;;;;;;;4.13;1.27;;;;;;;21.04;65.19;102292.53;10465529;28;20392;-66
2022/05/06 14:57:14;;;;;;;5.07;1.40;;;;;;;20.90;64.84;102296.00;10464153;28;20477;-66
2022/05/06 15:02:14;;;;;;;1.77;1.52;;;;;;;20.68;67.33;102281.59;10461628;28;20037;-64
2022/05/06 15:07:15;;;;;;;3.92;1.55;;;;;;;20.51;68.90;102287.53;10476391;28;20039;-66
2022/05/06 15:12:15;;;;;;;3.47;2.00;;;;;;;20.41;68.16;102282.81;10505125;28;20037;-66
2022/05/06 15:17:18;;;;;;;5.55;1.90;;;;;;;20.20;68.07;102270.88;10471507;28;20037;-65
2022/05/06 15:22:19;;;;;;;2.88;1.50;;;;;;;20.33;68.15;102231.09;10502561;28;20105;-66
2022/05/06 15:27:21;;;;;;;4.28;1.80;;;;;;;21.19;65.10;102252.38;10504326;28;20067;-67
2022/05/06 15:32:21;;;;;;;4.60;1.85;;;;;;;22.41;63.72;102249.41;10501181;28;20583;-66
2022/05/06 15:37:22;;;;;;;5.25;1.83;;;;;;;23.09;60.46;102220.91;10503375;28;20037;-67
2022/05/06 15:42:22;;;;;;;5.10;2.22;;;;;;;23.04;59.37;102211.72;10499219;28;20051;-66
2022/05/06 15:47:23;;;;;;;2.63;2.00;;;;;;;22.18;60.41;102218.28;10499800;28;20059;-65
2022/05/06 15:52:23;;;;;;;7.10;2.22;;;;;;;21.92;60.45;102232.63;10504618;28;20359;-66
2022/05/06 15:57:24;;;;;;;6.32;2.40;;;;;;;21.90;60.22;102225.63;10502305;28;20044;-63
2022/05/06 16:02:24;;;;;;;5.47;2.42;;;;;;;21.63;61.40;102229.03;10503316;28;20041;-67
2022/05/06 16:07:25;;;;;;;4.97;2.92;;;;;;;21.27;62.27;102227.41;10503148;28;20052;-67
2022/05/06 16:12:25;;;;;;;9.57;3.22;;;;;;;21.17;63.37;102205.91;10501804;28;20090;-65
2022/05/06 16:17:26;;;;;;;5.72;2.67;;;;;;;21.11;64.77;102217.47;10501389;28;20044;-66
2022/05/06 16:22:26;;;;;;;4.90;3.03;;;;;;;21.04;65.13;102217.75;10493801;28;20040;-66
2022/05/06 16:27:27;;;;;;;5.70;2.85;;;;;;;20.68;65.78;102214.41;10491425;28;20112;-68
2022/05/06 16:32:28;;;;;;;5.80;2.95;;;;;;;21.19;64.83;102218.75;10500763;28;20082;-66
2022/05/06 16:37:29;;;;;;;5.05;3.05;;;;;;;21.59;64.69;102211.13;10501119;28;20047;-67
2022/05/06 16:42:31;;;;;;;7.88;3.80;;;;;;;21.35;63.13;102198.75;10501695;28;20037;-66
2022/05/06 16:47:31;;;;;;;7.97;4.30;;;;;;;21.33;63.32;102206.59;10502808;28;20051;-66
2022/05/06 16:52:32;;;;;;;10.98;4.53;;;;;;;21.17;63.83;102203.09;10500503;28;20031;-66
2022/05/06 16:57:33;;;;;;;7.15;4.70;;;;;;;20.58;65.18;102208.88;10499956;28;20044;-66
2022/05/06 17:02:33;;;;;;;6.15;4.82;;;;;;;20.16;67.11;102216.66;10497757;28;20032;-66
2022/05/06 17:07:34;;;;;;;7.25;5.10;;;;;;;19.79;68.17;102217.91;10500130;28;20036;-66
2022/05/06 17:12:35;;;;;;;8.93;5.45;;;;;;;19.60;69.70;102216.81;10482541;28;20042;-66
2022/05/06 17:17:35;;;;;;;9.63;5.25;;;;;;;19.51;70.42;102228.56;10499912;28;20040;-65
2022/05/06 17:22:36;;;;;;;11.88;5.40;;;;;;;19.36;71.06;102225.78;10499009;28;20044;-66
2022/05/06 17:27:38;;;;;;;8.45;5.82;;;;;;;19.08;71.61;102211.28;10499117;28;20036;-66
2022/05/06 17:32:38;;;;;;;11.13;4.93;;;;;;;19.00;74.08;102236.13;10497118;28;20032;-66
2022/05/06 17:37:39;;;;;;;8.82;6.28;;;;;;;18.85;73.94;102232.22;10498691;28;20036;-66
2022/05/06 17:42:40;;;;;;;10.73;6.82;;;;;;;18.68;73.92;102228.78;10498588;28;20041;-66
2022/05/06 17:47:40;;;;;;;10.82;7.50;;;;;;;18.45;74.19;102224.56;10497923;28;20044;-66
2022/05/06 17:52:41;;;;;;;14.18;6.82;;;;;;;18.52;77.40;102239.06;10497196;28;20036;-66
2022/05/06 17:57:42;;;;;;;12.00;6.45;;;;;;;18.45;77.17;102235.72;10498243;28;20029;-65
2022/05/06 18:02:42;;;;;;;12.73;6.10;;;;;;;18.45;78.66;102225.41;10492652;28;20075;-66
2022/05/06 18:07:42;;;;;;;9.77;6.30;;;;;;;18.41;78.55;102217.88;10494692;28;20090;-64
2022/05/06 18:12:43;;;;;;;14.38;7.78;;;;;;;18.33;77.61;102222.88;10497134;28;20116;-66
2022/05/06 18:17:43;;;;;;;11.10;6.72;;;;;;;18.33;77.09;102225.66;10496681;28;20102;-66
2022/05/06 18:22:45;;;;;;;9.93;4.85;;;;;;;18.34;78.13;102218.13;10495713;28;20131;-66
2022/05/06 18:27:47;;;;;;;10.00;4.97;;;;;;;18.31;77.49;102227.88;10491161;28;20119;-66
2022/05/06 18:38:07;;;;;;;11.77;6.63;;;;;;;17.93;78.83;102229.94;10496231;28;20044;-66
2022/05/06 18:43:07;;;;;;;12.95;6.82;;;;;;;17.73;79.75;102244.56;10476449;28;20082;-65
2022/05/06 18:48:11;;;;;;;9.15;6.07;;;;;;;17.47;81.54;102245.53;10467037;28;20048;-66
2022/05/06 18:53:12;;;;;;;10.95;6.30;;;;;;;17.19;82.15;102255.03;10455945;28;20051;-68
2022/05/06 18:58:12;;;;;;;9.27;5.60;;;;;;;16.62;84.73;102215.53;10452247;28;20063;-67
2022/05/06 19:03:13;;;;;;;10.23;6.22;;;;;;;16.69;88.12;102266.22;10451000;28;20091;-67
2022/05/06 19:08:13;;;;;;;12.45;6.30;;;;;;;16.42;91.30;102270.91;10453582;28;20030;-67
2022/05/06 19:13:14;;;;;;;14.75;7.07;;;;;;;16.18;95.28;102275.88;10454750;28;20041;-69
2022/05/06 19:18:14;;;;;;;9.75;7.15;;;;;;;15.97;97.80;102275.59;10451749;28;20048;-70
2022/05/06 19:28:34;;;;;;;17.35;10.10;;;;;;;15.53;100.00;102304.09;10461666;28;20048;-71
2022/05/06 19:33:34;;;;;;;13.13;8.82;;;;;;;15.27;100.00;102302.81;10459791;28;20045;-71
2022/05/06 19:38:35;;;;;;;11.50;9.02;;;;;;;14.93;100.00;102290.84;10462049;28;20037;-71
2022/05/06 19:43:35;;;;;;;13.60;10.13;;;;;;;14.67;100.00;102289.50;10461408;28;20104;-71
2022/05/06 19:48:36;;;;;;;14.38;9.70;;;;;;;14.50;100.00;102286.66;10458128;28;20041;-71
2022/05/06 19:53:36;;;;;;;19.20;10.80;;;;;;;14.40;100.00;102303.06;10458579;28;20033;-71
2022/05/06 19:58:37;;;;;;;18.85;11.80;;;;;;;14.29;100.00;102300.09;10457944;28;20052;-71
2022/05/06 20:03:37;;;;;;;19.60;12.57;;;;;;;14.26;100.00;102292.28;10460036;28;20041;-71
2022/05/06 20:08:38;;;;;;;22.67;12.25;;;;;;;14.08;100.00;102281.34;10461535;28;20037;-66
2022/05/06 20:13:39;;;;;;;17.63;12.52;;;;;;;14.02;100.00;102283.16;10461440;28;20055;-69
2022/05/06 20:18:39;;;;;;;16.67;11.00;;;;;;;13.95;100.00;102284.38;10457607;28;20044;-71
2022/05/06 20:23:40;;;;;;;15.38;11.30;;;;;;;13.89;100.00;102281.50;10459003;28;20052;-71
2022/05/06 20:28:42;;;;;;;15.88;12.10;;;;;;;13.82;100.00;102293.78;10456931;28;20065;-69
2022/05/06 20:33:42;;;;;;;16.50;12.30;;;;;;;13.64;100.00;102292.81;10456833;28;20130;-69
2022/05/06 20:38:43;;;;;;;17.67;13.18;;;;;;;13.47;100.00;102281.59;10458472;28;20033;-69
2022/05/06 20:43:44;;;;;;;17.50;12.38;;;;;;;13.44;100.00;102293.16;10459221;28;20044;-69
2022/05/06 20:48:44;;;;;;;19.48;12.55;;;;;;;13.32;100.00;102289.53;10458156;28;20044;-69
2022/05/06 20:53:45;;;;;;;18.65;13.48;;;;;;;13.13;100.00;102274.94;10457365;28;20036;-69
2022/05/06 21:04:04;;;;;;;20.90;15.27;;;;;;;12.88;100.00;102292.53;10495784;28;20068;-69
2022/05/06 21:14:24;;;;;;;24.73;16.42;;;;;;;12.71;100.00;102292.34;10496988;28;20036;-69
2022/05/06 21:19:24;;;;;;;23.50;16.10;;;;;;;12.60;100.00;102281.25;10496958;28;20040;-69
2022/05/06 21:24:25;;;;;;;22.35;15.23;;;;;;;12.61;100.00;102283.78;10478481;28;20480;-69
2022/05/06 21:29:25;;;;;;;24.85;15.32;;;;;;;12.52;100.00;102290.69;10498468;28;20059;-69
2022/05/06 21:34:27;;;;;;;19.38;15.52;;;;;;;12.38;100.00;102286.41;10500931;28;20426;-69
2022/05/06 21:39:27;;;;;;;31.48;16.98;;;;;;;12.17;100.00;102280.28;10480477;28;20045;-69
2022/05/06 21:44:28;;;;;;;23.80;16.77;;;;;;;12.05;100.00;102287.66;10454750;28;20033;-69
2022/05/06 21:49:28;;;;;;;20.88;15.77;;;;;;;11.39;100.00;102201.75;10456609;28;20045;-69
2022/05/06 21:54:29;;;;;;;28.30;17.17;;;;;;;11.73;100.00;102284.16;10456027;28;20476;-69
2022/05/06 21:59:29;;;;;;;29.70;18.30;;;;;;;11.64;100.00;102289.13;10471822;28;20400;-68
2022/05/06 22:04:30;;;;;;;28.00;18.48;;;;;;;11.50;100.00;102289.22;10458725;28;20116;-69
2022/05/06 22:09:30;;;;;;;24.52;17.52;;;;;;;11.43;100.00;102296.75;10456574;28;20064;-69
2022/05/06 22:14:31;;;;;;;31.35;20.33;;;;;;;11.32;100.00;102289.19;10453644;28;20434;-69
2022/05/06 22:19:31;;;;;;;29.67;19.58;;;;;;;11.24;100.00;102289.47;10453519;28;20044;-70
2022/05/06 22:24:32;;;;;;;30.17;18.95;;;;;;;11.14;100.00;102284.47;10455432;28;20147;-69
2022/05/06 22:29:32;;;;;;;35.20;21.42;;;;;;;11.15;100.00;102296.31;10453546;28;20073;-68
2022/05/06 22:34:35;;;;;;;30.48;20.50;;;;;;;11.11;100.00;102285.72;10457350;28;20029;-69
2022/05/06 22:39:35;;;;;;;30.67;20.27;;;;;;;11.11;100.00;102282.97;10455352;28;20109;-69
2022/05/06 22:49:55;;;;;;;28.75;21.40;;;;;;;11.01;100.00;102270.75;10478664;28;20055;-70
2022/05/06 22:54:55;;;;;;;32.92;20.92;;;;;;;11.05;100.00;102269.25;10494464;28;20449;-70
2022/05/06 22:59:56;;;;;;;33.70;23.30;;;;;;;11.09;100.00;102279.59;10505516;28;20043;-69
2022/05/06 23:04:56;;;;;;;34.45;23.83;;;;;;;11.05;100.00;102272.00;10503997;28;20036;-69
2022/05/06 23:09:57;;;;;;;37.75;23.13;;;;;;;11.10;100.00;102270.28;10503849;28;20037;-69
2022/05/06 23:14:57;;;;;;;37.55;23.58;;;;;;;11.14;100.00;102265.16;10501221;28;20033;-69
2022/05/06 23:19:58;;;;;;;35.75;23.33;;;;;;;11.16;100.00;102264.91;10500870;28;20049;-69
2022/05/06 23:24:58;;;;;;;34.75;23.70;;;;;;;11.21;100.00;102256.84;10459202;28;20033;-71
2022/05/06 23:29:59;;;;;;;34.17;23.55;;;;;;;11.24;100.00;102248.09;10463316;28;20037;-68
2022/05/06 23:34:59;;;;;;;44.28;24.50;;;;;;;11.31;100.00;102251.66;10463371;28;20501;-69
2022/05/06 23:40:01;;;;;;;38.33;23.63;;;;;;;11.28;100.00;102246.59;10462014;28;20040;-70
2022/05/06 23:45:01;;;;;;;38.42;24.13;;;;;;;11.24;100.00;102235.16;10460526;28;20491;-70
2022/05/06 23:50:02;;;;;;;33.05;23.52;;;;;;;11.42;100.00;102253.66;10470726;28;20051;-70
2022/05/06 23:55:03;;;;;;;34.45;21.90;;;;;;;11.54;100.00;102252.94;10502411;28;20032;-70
